createdAt,value
2017-11-14T13:21:48.930Z,24.74
2017-11-14T13:22:35.608Z,24.92
2017-11-14T13:23:05.880Z,24.97
2017-11-14T13:23:35.544Z,25
2017-11-14T13:24:05.513Z,24.99
2017-11-14T13:24:34.501Z,25
2017-11-14T13:25:06.492Z,24.88
2017-11-14T13:25:32.405Z,24.89
2017-11-14T13:26:05.022Z,24.71
2017-11-14T13:26:34.723Z,24.78
2017-11-14T13:27:06.006Z,24.74
2017-11-14T13:27:37.366Z,24.69
2017-11-14T13:28:07.339Z,24.75
2017-11-14T13:28:37.316Z,24.85
2017-11-14T13:29:06.907Z,24.82
2017-11-14T13:29:34.896Z,24.81
2017-11-14T13:30:03.200Z,24.75
2017-11-14T13:30:32.114Z,24.63
2017-11-14T13:31:00.219Z,24.51
2017-11-14T13:31:27.980Z,24.5
2017-11-14T13:31:55.928Z,24.41
2017-11-14T13:32:23.992Z,24.46
2017-11-14T13:32:51.951Z,24.63
2017-11-14T13:33:20.313Z,24.63
2017-11-14T13:33:51.005Z,24.68
2017-11-14T13:34:20.125Z,24.84
2017-11-14T13:34:48.984Z,24.81
2017-11-14T13:35:19.455Z,24.86
2017-11-14T13:35:50.557Z,24.86
2017-11-14T13:36:19.224Z,24.89
2017-11-14T13:36:47.403Z,24.85
2017-11-14T13:37:17.502Z,24.86
2017-11-14T13:37:45.874Z,24.89
2017-11-14T13:38:13.959Z,24.92
2017-11-14T13:38:42.043Z,24.81
2017-11-14T13:39:10.010Z,24.81
2017-11-14T13:39:38.104Z,24.92
2017-11-14T13:40:06.183Z,24.89
2017-11-14T13:40:34.223Z,24.89
2017-11-14T13:41:02.386Z,24.88
2017-11-14T13:41:30.359Z,24.82
2017-11-14T13:41:58.308Z,24.82
2017-11-14T13:42:26.277Z,24.89
2017-11-14T13:42:54.305Z,24.86
2017-11-14T13:43:22.184Z,24.96
2017-11-14T13:43:50.339Z,25
2017-11-14T13:44:18.370Z,25.09
2017-11-14T13:44:46.561Z,25
2017-11-14T13:45:14.726Z,25
2017-11-14T13:45:42.709Z,25.01
2017-11-14T13:46:10.768Z,24.99
2017-11-14T13:46:38.827Z,25.07
2017-11-14T13:47:06.778Z,25.14
2017-11-14T13:47:34.965Z,25.29
2017-11-14T13:48:03.041Z,25.24
2017-11-14T13:48:30.980Z,25.15
2017-11-14T13:48:59.116Z,25.26
2017-11-14T13:49:27.189Z,25.26
2017-11-14T13:49:55.272Z,25.25
2017-11-14T13:50:23.548Z,25.3
2017-11-14T13:50:51.630Z,25.29
2017-11-14T13:51:19.579Z,25.31
2017-11-14T13:51:47.633Z,25.3
2017-11-14T13:52:15.943Z,25.26
2017-11-14T13:52:43.885Z,25.26
2017-11-14T13:53:12.118Z,25.3
2017-11-14T13:53:40.094Z,25.31
2017-11-14T13:54:07.948Z,25.33
2017-11-14T13:54:36.112Z,25.31
2017-11-14T13:55:03.951Z,25.36
2017-11-14T13:55:31.985Z,25.39
2017-11-14T13:56:00.057Z,25.29
2017-11-14T13:56:28.148Z,25.3
2017-11-14T13:56:56.134Z,25.36
2017-11-14T13:57:24.204Z,25.3
2017-11-14T13:57:52.171Z,25.31
2017-11-14T13:58:20.354Z,25.3
2017-11-14T13:58:48.545Z,25.3
2017-11-14T13:59:16.698Z,25.24
2017-11-14T13:59:44.858Z,25.04
2017-11-14T14:00:13.045Z,25.04
2017-11-14T14:00:41.587Z,24.96
2017-11-14T14:01:09.779Z,24.92
2017-11-14T14:01:37.921Z,24.84
2017-11-14T14:02:06.051Z,24.71
2017-11-14T14:02:34.174Z,24.77
2017-11-14T14:03:02.229Z,24.71
2017-11-14T14:03:31.127Z,24.86
2017-11-14T14:03:59.077Z,24.81
2017-11-14T14:04:27.393Z,24.84
2017-11-14T14:04:55.570Z,24.89
2017-11-14T14:05:23.667Z,24.88
2017-11-14T14:05:51.519Z,24.99
2017-11-14T14:06:19.599Z,25
2017-11-14T14:06:47.665Z,25
2017-11-14T14:07:15.928Z,25.04
2017-11-14T14:07:44.092Z,25
2017-11-14T14:08:12.232Z,25.01
2017-11-14T14:08:40.414Z,25.03
2017-11-14T14:09:08.361Z,25.09
2017-11-14T14:09:36.727Z,25.3
2017-11-14T14:10:04.948Z,25.31
2017-11-14T14:10:33.380Z,25.26
2017-11-14T14:11:16.490Z,25.34
2017-11-14T14:11:45.022Z,25.44
2017-11-14T14:12:14.433Z,25.52
2017-11-14T14:12:42.439Z,25.51
2017-11-14T14:13:10.407Z,25.61
2017-11-14T14:13:40.052Z,25.74
2017-11-14T14:14:08.943Z,25.71
2017-11-14T14:14:51.491Z,25.74
2017-11-14T14:15:19.809Z,25.61
2017-11-14T14:15:47.699Z,25.66
2017-11-14T14:16:16.574Z,25.66
2017-11-14T14:16:44.999Z,25.62
2017-11-14T14:17:14.399Z,25.54
2017-11-14T14:17:57.626Z,25.61
2017-11-14T14:18:26.095Z,25.63
2017-11-14T14:18:54.876Z,25.63
2017-11-14T14:19:24.051Z,25.68
2017-11-14T14:19:52.670Z,25.77
2017-11-14T14:20:23.008Z,25.83
2017-11-14T14:21:05.785Z,25.74
2017-11-14T14:21:33.992Z,25.81
2017-11-14T14:22:02.360Z,25.77
2017-11-14T14:22:30.528Z,25.74
2017-11-14T14:22:58.884Z,25.78
2017-11-14T14:23:27.221Z,25.88
2017-11-14T14:23:55.796Z,25.93
2017-11-14T14:24:23.784Z,25.86
2017-11-14T14:25:22.379Z,26.06
2017-11-14T14:25:50.657Z,26.01
2017-11-14T14:26:19.804Z,26.07
2017-11-14T14:26:48.215Z,26.11
2017-11-14T14:27:18.083Z,26.18
2017-11-14T14:27:47.152Z,26.26
2017-11-14T14:29:00.082Z,26.26
2017-11-14T14:29:28.702Z,26.3
2017-11-14T14:29:57.206Z,26.29
2017-11-14T14:30:40.271Z,26.18
2017-11-14T14:31:08.453Z,26.19
2017-11-14T14:31:36.931Z,26.13
2017-11-14T14:32:05.154Z,26.18
2017-11-14T14:32:35.194Z,26.16
2017-11-14T14:33:03.149Z,26.22
2017-11-14T14:33:31.401Z,26.26
2017-11-14T14:34:43.091Z,26.44
2017-11-14T14:35:11.355Z,26.51
2017-11-14T14:35:39.248Z,26.49
2017-11-14T14:36:07.201Z,26.56
2017-11-14T14:36:35.294Z,26.61
2017-11-14T14:37:03.463Z,26.7
2017-11-14T14:37:31.548Z,26.83
2017-11-14T14:37:59.638Z,26.89
2017-11-14T14:38:27.704Z,26.85
2017-11-14T14:38:55.897Z,26.92
2017-11-14T14:39:24.008Z,26.91
2017-11-14T14:39:52.081Z,26.93
2017-11-14T14:40:20.033Z,26.93
2017-11-14T14:40:48.122Z,26.89
2017-11-14T14:41:16.299Z,26.97
2017-11-14T14:41:44.300Z,27.01
2017-11-14T14:42:12.432Z,26.96
2017-11-14T14:42:40.771Z,26.85
2017-11-14T14:43:09.242Z,26.86
2017-11-14T14:43:37.634Z,26.92
2017-11-14T14:44:05.629Z,26.86
2017-11-14T14:44:33.485Z,26.89
2017-11-14T14:45:01.710Z,26.88
2017-11-14T14:45:29.776Z,27
2017-11-14T14:45:57.863Z,26.92
2017-11-14T14:46:25.827Z,26.93
2017-11-14T14:46:54.080Z,27.04
2017-11-14T14:47:22.430Z,27.05
2017-11-14T14:47:50.382Z,27.13
2017-11-14T14:48:18.458Z,27.22
2017-11-14T14:48:46.581Z,27.19
2017-11-14T14:49:14.755Z,27.3
2017-11-14T14:49:42.688Z,27.29
2017-11-14T14:50:11.021Z,27.43
2017-11-14T14:50:38.884Z,27.41
2017-11-14T14:51:06.992Z,27.57
2017-11-14T14:51:34.986Z,27.53
2017-11-14T14:52:02.966Z,27.47
2017-11-14T14:52:30.858Z,27.45
2017-11-14T14:52:58.936Z,27.3
2017-11-14T14:53:27.322Z,27.26
2017-11-14T14:53:55.190Z,27.25
2017-11-14T14:54:23.195Z,27.25
2017-11-14T14:54:51.202Z,27.19
2017-11-14T14:55:19.308Z,27.3
2017-11-14T14:55:47.473Z,27.38
2017-11-14T14:56:15.323Z,27.35
2017-11-14T14:56:43.501Z,27.37
2017-11-14T14:57:11.643Z,27.3
2017-11-14T14:57:39.700Z,27.19
2017-11-14T14:58:07.872Z,27.22
2017-11-14T14:58:36.157Z,27.16
2017-11-14T14:59:04.022Z,27.13
2017-11-14T14:59:32.026Z,27.19
2017-11-14T15:00:00.036Z,27.22
2017-11-14T15:00:28.114Z,27.22
2017-11-14T15:00:56.178Z,27.22
2017-11-14T15:01:24.291Z,27.2
2017-11-14T15:01:52.457Z,27.2
2017-11-14T15:02:20.449Z,27.23
2017-11-14T15:02:48.607Z,27.35
2017-11-14T15:03:16.777Z,27.34
2017-11-14T15:03:44.783Z,27.3
2017-11-14T15:04:12.794Z,27.38
2017-11-14T15:04:41.204Z,27.43
2017-11-14T15:05:09.413Z,27.38
2017-11-14T15:05:37.491Z,27.35
2017-11-14T15:06:48.145Z,27.3
2017-11-14T15:07:16.904Z,27.34
2017-11-14T15:07:44.998Z,27.3
2017-11-14T15:08:13.908Z,27.28
2017-11-14T15:08:42.474Z,27.28
2017-11-14T15:09:10.681Z,27.34
2017-11-14T15:09:38.880Z,27.38
2017-11-14T15:10:07.608Z,27.34
2017-11-14T15:10:35.791Z,27.47
2017-11-14T15:11:03.870Z,27.4
2017-11-14T15:11:46.398Z,27.41
2017-11-14T15:12:15.545Z,27.55
2017-11-14T15:12:43.738Z,27.5
2017-11-14T15:13:11.827Z,27.71
2017-11-14T15:14:37.002Z,27.73
2017-11-14T15:15:19.785Z,27.79
2017-11-14T15:15:47.884Z,27.83
2017-11-14T15:16:16.051Z,27.78
2017-11-14T15:16:44.178Z,27.88
2017-11-14T15:17:12.545Z,27.88
2017-11-14T15:17:41.011Z,27.88
2017-11-14T15:18:09.986Z,27.82
2017-11-14T15:18:38.593Z,27.76
2017-11-14T15:19:06.746Z,27.66
2017-11-14T15:19:34.937Z,27.66
2017-11-14T15:20:03.125Z,27.6
2017-11-14T15:20:31.215Z,27.57
2017-11-14T15:20:59.334Z,27.55
2017-11-14T15:21:27.379Z,27.53
2017-11-14T15:21:55.374Z,27.52
2017-11-14T15:22:23.702Z,27.52
2017-11-14T15:22:51.914Z,27.52
2017-11-14T15:23:20.169Z,27.53
2017-11-14T15:23:48.257Z,27.5
2017-11-14T15:24:16.298Z,27.61
2017-11-14T15:24:44.442Z,27.72
2017-11-14T15:25:12.552Z,27.75
2017-11-14T15:25:40.531Z,27.83
2017-11-14T15:26:08.581Z,27.85
2017-11-14T15:26:36.620Z,27.97
2017-11-14T15:27:04.588Z,27.98
2017-11-14T15:27:32.693Z,28
2017-11-14T15:28:00.725Z,27.97
2017-11-14T15:28:28.701Z,28.03
2017-11-14T15:28:57.063Z,28.12
2017-11-14T15:29:39.629Z,28.15
2017-11-14T15:30:08.209Z,28.18
2017-11-14T15:30:36.498Z,28.23
2017-11-14T15:31:04.771Z,28.31
2017-11-14T15:31:33.181Z,28.4
2017-11-14T15:32:01.742Z,28.41
2017-11-14T15:32:29.748Z,28.43
2017-11-14T15:32:58.065Z,28.46
2017-11-14T15:33:27.328Z,28.5
2017-11-14T15:34:10.125Z,28.5
2017-11-14T15:34:38.084Z,28.53
2017-11-14T15:35:06.274Z,28.57
2017-11-14T15:35:34.261Z,28.55
2017-11-14T15:36:02.457Z,28.57
2017-11-14T15:36:30.537Z,28.59
2017-11-14T15:36:58.690Z,28.65
2017-11-14T15:37:26.701Z,28.62
2017-11-14T15:37:54.551Z,28.7
2017-11-14T15:38:22.853Z,28.67
2017-11-14T15:38:50.926Z,28.65
2017-11-14T15:39:19.083Z,28.75
2017-11-14T15:39:47.163Z,28.7
2017-11-14T15:40:15.164Z,28.68
2017-11-14T15:40:43.482Z,28.64
2017-11-14T15:41:11.207Z,28.71
2017-11-14T15:41:39.300Z,28.72
2017-11-14T15:42:07.298Z,28.64
2017-11-14T15:42:35.793Z,28.62
2017-11-14T15:43:03.858Z,28.59
2017-11-14T15:43:31.858Z,28.53
2017-11-14T15:44:00.071Z,28.5
2017-11-14T15:44:28.234Z,28.52
2017-11-14T15:44:56.440Z,28.62
2017-11-14T15:45:24.559Z,28.65
2017-11-14T15:45:52.645Z,28.67
2017-11-14T15:46:20.668Z,28.77
2017-11-14T15:46:48.832Z,28.68
2017-11-14T15:47:16.899Z,28.74
2017-11-14T15:47:44.832Z,28.77
2017-11-14T15:48:13.011Z,28.72
2017-11-14T15:48:41.074Z,28.82
2017-11-14T15:49:09.122Z,28.89
2017-11-14T15:49:37.216Z,28.89
2017-11-14T15:50:05.288Z,28.97
2017-11-14T15:50:33.155Z,28.84
2017-11-14T15:51:01.209Z,28.94
2017-11-14T15:51:29.363Z,28.92
2017-11-14T15:51:57.390Z,28.86
2017-11-14T15:52:25.228Z,28.87
2017-11-14T15:52:53.107Z,28.74
2017-11-14T15:53:21.281Z,28.75
2017-11-14T15:53:49.156Z,28.53
2017-11-14T15:54:17.007Z,28.49
2017-11-14T15:54:45.070Z,28.5
2017-11-14T15:55:13.266Z,28.49
2017-11-14T15:55:41.161Z,28.45
2017-11-14T15:56:09.337Z,28.45
2017-11-14T15:56:37.913Z,28.43
2017-11-14T15:57:05.970Z,28.4
2017-11-14T15:57:34.035Z,28.33
2017-11-14T15:58:02.171Z,28.35
2017-11-14T15:58:29.984Z,28.37
2017-11-14T15:58:57.841Z,28.31
2017-11-14T15:59:25.810Z,28.34
2017-11-14T15:59:53.790Z,28.23
2017-11-14T16:00:21.748Z,28.34
2017-11-14T16:00:49.681Z,28.22
2017-11-14T16:01:17.600Z,28.34
2017-11-14T16:01:45.752Z,28.37
2017-11-14T16:02:13.920Z,28.4
2017-11-14T16:02:41.790Z,28.34
2017-11-14T16:03:09.639Z,28.28
2017-11-14T16:03:37.629Z,28.16
2017-11-14T16:04:05.684Z,28.18
2017-11-14T16:04:33.795Z,28.12
2017-11-14T16:05:01.938Z,28.12
2017-11-14T16:05:29.916Z,28.01
2017-11-14T16:05:57.822Z,27.97
2017-11-14T16:06:25.908Z,28.01
2017-11-14T16:06:53.784Z,28.12
2017-11-14T16:07:21.801Z,28.16
2017-11-14T16:07:49.789Z,28.22
2017-11-14T16:08:32.353Z,28.22
2017-11-14T16:09:00.760Z,28.25
2017-11-14T16:09:28.937Z,28.3
2017-11-14T16:09:57.012Z,28.38
2017-11-14T16:10:25.083Z,28.43
2017-11-14T16:10:53.188Z,28.4
2017-11-14T16:11:21.372Z,28.49
2017-11-14T16:11:49.598Z,28.53
2017-11-14T16:12:17.691Z,28.53
2017-11-14T16:12:46.183Z,28.59
2017-11-14T16:13:14.423Z,28.59
2017-11-14T16:13:43.184Z,28.67
2017-11-14T16:14:11.838Z,28.68
2017-11-14T16:14:40.273Z,28.75
2017-11-14T16:15:08.389Z,28.8
2017-11-14T16:15:36.527Z,28.8
2017-11-14T16:16:04.619Z,28.94
2017-11-14T16:16:32.665Z,28.93
2017-11-14T16:17:00.760Z,28.89
2017-11-14T16:17:28.649Z,28.96
2017-11-14T16:17:56.834Z,28.93
2017-11-14T16:18:24.804Z,28.96
2017-11-14T16:18:52.871Z,28.94
2017-11-14T16:19:20.839Z,28.89
2017-11-14T16:19:48.852Z,28.87
2017-11-14T16:20:17.034Z,28.9
2017-11-14T16:20:44.959Z,28.86
2017-11-14T16:21:13.169Z,28.87
2017-11-14T16:21:41.455Z,28.96
2017-11-14T16:22:09.539Z,29
2017-11-14T16:22:37.587Z,29.07
2017-11-14T16:23:06.604Z,29.15
2017-11-14T16:23:34.728Z,29.18
2017-11-14T16:24:02.921Z,29.21
2017-11-14T16:24:31.599Z,29.25
2017-11-14T16:24:59.780Z,29.3
2017-11-14T16:25:27.713Z,29.34
2017-11-14T16:25:55.857Z,29.39
2017-11-14T16:26:23.842Z,29.37
2017-11-14T16:26:51.923Z,29.47
2017-11-14T16:27:19.890Z,29.35
2017-11-14T16:27:47.796Z,29.47
2017-11-14T16:28:15.781Z,29.49
2017-11-14T16:28:43.701Z,29.61
2017-11-14T16:29:11.763Z,29.55
2017-11-14T16:29:39.762Z,29.65
2017-11-14T16:30:07.982Z,29.73
2017-11-14T16:30:36.046Z,29.61
2017-11-14T16:31:04.486Z,29.64
2017-11-14T16:31:32.679Z,29.67
2017-11-14T16:32:00.871Z,29.59
2017-11-14T16:32:28.980Z,29.55
2017-11-14T16:32:57.145Z,29.57
2017-11-14T16:33:25.218Z,29.57
2017-11-14T16:33:53.640Z,29.52
2017-11-14T16:34:21.583Z,29.59
2017-11-14T16:34:49.526Z,29.44
2017-11-14T16:35:17.492Z,29.44
2017-11-14T16:35:45.614Z,29.43
2017-11-14T16:36:13.780Z,29.58
2017-11-14T16:36:41.763Z,29.43
2017-11-14T16:37:10.092Z,29.4
2017-11-14T16:37:38.302Z,29.34
2017-11-14T16:38:06.437Z,29.42
2017-11-14T16:38:34.298Z,29.34
2017-11-14T16:39:02.427Z,29.34
2017-11-14T16:39:30.499Z,29.32
2017-11-14T16:39:58.608Z,29.28
2017-11-14T16:40:26.767Z,29.3
2017-11-14T16:40:54.629Z,29.37
2017-11-14T16:41:22.724Z,29.32
2017-11-14T16:41:50.688Z,29.35
2017-11-14T16:42:18.758Z,29.39
2017-11-14T16:42:46.915Z,29.49
2017-11-14T16:43:14.977Z,29.58
2017-11-14T16:43:43.177Z,29.58
2017-11-14T16:44:11.225Z,29.52
2017-11-14T16:44:39.182Z,29.62
2017-11-14T16:45:07.288Z,29.62
2017-11-14T16:45:35.412Z,29.61
2017-11-14T16:46:03.850Z,29.65
2017-11-14T16:46:32.155Z,29.76
2017-11-14T16:47:00.247Z,29.73
2017-11-14T16:47:28.130Z,29.69
2017-11-14T16:47:56.217Z,29.77
2017-11-14T16:48:24.313Z,29.69
2017-11-14T16:48:52.386Z,29.68
2017-11-14T16:49:20.541Z,29.57
2017-11-14T16:49:48.460Z,29.57
2017-11-14T16:50:16.514Z,29.43
2017-11-14T16:50:44.702Z,29.46
2017-11-14T16:51:12.886Z,29.43
2017-11-14T16:51:40.957Z,29.44
2017-11-14T16:52:09.041Z,29.43
2017-11-14T16:52:37.280Z,29.46
2017-11-14T16:53:05.485Z,29.32
2017-11-14T16:53:33.509Z,29.34
2017-11-14T16:54:01.587Z,29.28
2017-11-14T16:54:29.853Z,29.22
2017-11-14T16:54:58.579Z,29.1
2017-11-14T16:55:26.616Z,29.13
2017-11-14T16:55:54.756Z,29.09
2017-11-14T16:56:22.827Z,29.12
2017-11-14T16:56:50.907Z,29.15
2017-11-14T16:57:18.786Z,29.2
2017-11-14T16:57:47.079Z,29.15
2017-11-14T16:58:15.285Z,29.25
2017-11-14T16:58:43.514Z,29.2
2017-11-14T16:59:11.541Z,29.21
2017-11-14T16:59:39.601Z,29.13
2017-11-14T17:00:07.681Z,29.21
2017-11-14T17:00:35.852Z,29.15
2017-11-14T17:01:03.905Z,29.32
2017-11-14T17:01:31.919Z,29.28
2017-11-14T17:01:59.880Z,29.28
2017-11-14T17:02:28.048Z,29.2
2017-11-14T17:02:56.180Z,29.4
2017-11-14T17:03:24.229Z,29.42
2017-11-14T17:03:52.315Z,29.32
2017-11-14T17:04:20.299Z,29.3
2017-11-14T17:04:48.481Z,29.27
2017-11-14T17:05:16.491Z,29.34
2017-11-14T17:05:44.373Z,29.35
2017-11-14T17:06:12.372Z,29.42
2017-11-14T17:06:40.479Z,29.42
2017-11-14T17:07:08.500Z,29.4
2017-11-14T17:07:36.296Z,29.57
2017-11-14T17:08:04.789Z,29.53
2017-11-14T17:08:32.972Z,29.64
2017-11-14T17:09:01.122Z,29.68
2017-11-14T17:09:29.351Z,29.52
2017-11-14T17:09:57.523Z,29.52
2017-11-14T17:10:25.483Z,29.57
2017-11-14T17:10:53.816Z,29.49
2017-11-14T17:11:23.142Z,29.44
2017-11-14T17:11:51.824Z,29.58
2017-11-14T17:12:19.687Z,29.43
2017-11-14T17:12:47.662Z,29.44
2017-11-14T17:13:15.881Z,29.35
2017-11-14T17:13:43.829Z,29.37
2017-11-14T17:14:11.775Z,29.34
2017-11-14T17:14:39.951Z,29.43
2017-11-14T17:15:08.099Z,29.42
2017-11-14T17:15:36.362Z,29.46
2017-11-14T17:16:19.010Z,29.42
2017-11-14T17:16:47.045Z,29.39
2017-11-14T17:17:15.020Z,29.32
2017-11-14T17:17:43.334Z,29.32
2017-11-14T17:18:11.431Z,29.35
2017-11-14T17:18:39.522Z,29.46
2017-11-14T17:19:07.587Z,29.47
2017-11-14T17:19:50.469Z,29.44
2017-11-14T17:20:18.438Z,29.4
2017-11-14T17:20:46.623Z,29.3
2017-11-14T17:21:14.588Z,29.27
2017-11-14T17:21:42.517Z,29.28
2017-11-14T17:22:10.632Z,29.24
2017-11-14T17:22:38.859Z,29.16
2017-11-14T17:23:06.934Z,29.12
2017-11-14T17:23:35.012Z,29.06
2017-11-14T17:24:02.869Z,28.97
2017-11-14T17:24:31.076Z,29.05
2017-11-14T17:24:59.082Z,29
2017-11-14T17:25:27.167Z,28.93
2017-11-14T17:25:55.422Z,29.02
2017-11-14T17:26:23.499Z,28.97
2017-11-14T17:26:51.688Z,29.1
2017-11-14T17:27:19.584Z,29.05
2017-11-14T17:27:47.643Z,29.03
2017-11-14T17:28:15.724Z,29.03
2017-11-14T17:28:43.808Z,29
2017-11-14T17:29:12.110Z,28.97
2017-11-14T17:29:40.715Z,28.89
2017-11-14T17:30:08.759Z,28.9
2017-11-14T17:30:36.751Z,28.87
2017-11-14T17:31:04.892Z,28.93
2017-11-14T17:31:33.124Z,28.9
2017-11-14T17:32:01.093Z,28.93
2017-11-14T17:32:29.379Z,28.9
2017-11-14T17:32:57.153Z,28.93
2017-11-14T17:33:25.315Z,28.9
2017-11-14T17:33:53.193Z,28.92
2017-11-14T17:34:21.398Z,28.96
2017-11-14T17:34:49.562Z,28.86
2017-11-14T17:35:17.728Z,28.87
2017-11-14T17:35:45.737Z,28.9
2017-11-14T17:36:13.786Z,28.87
2017-11-14T17:36:41.974Z,28.8
2017-11-14T17:37:10.046Z,28.8
2017-11-14T17:37:37.920Z,28.74
2017-11-14T17:38:05.910Z,28.78
2017-11-14T17:38:33.885Z,28.7
2017-11-14T17:39:02.089Z,28.52
2017-11-14T17:39:30.166Z,28.52
2017-11-14T17:39:59.343Z,28.4
2017-11-14T17:40:27.474Z,28.43
2017-11-14T17:40:55.583Z,28.37
2017-11-14T17:41:23.776Z,28.35
2017-11-14T17:41:51.843Z,28.34
2017-11-14T17:42:20.047Z,28.33
2017-11-14T17:42:48.117Z,28.4
2017-11-14T17:43:16.199Z,28.31
2017-11-14T17:43:44.288Z,28.31
2017-11-14T17:44:12.341Z,28.33
2017-11-14T17:44:40.574Z,28.23
2017-11-14T17:45:08.769Z,28.28
2017-11-14T17:45:36.943Z,28.1
2017-11-14T17:46:05.075Z,28.19
2017-11-14T17:46:33.177Z,28.1
2017-11-14T17:47:01.148Z,28.01
2017-11-14T17:47:29.213Z,28.08
2017-11-14T17:47:57.373Z,27.97
2017-11-14T17:48:25.552Z,27.95
2017-11-14T17:48:53.509Z,27.9
2017-11-14T17:49:21.615Z,27.94
2017-11-14T17:49:49.690Z,27.94
2017-11-14T17:50:17.825Z,27.97
2017-11-14T17:50:45.859Z,28
2017-11-14T17:51:13.944Z,28.1
2017-11-14T17:51:41.910Z,28.16
2017-11-14T17:52:09.966Z,28.16
2017-11-14T17:52:37.960Z,28.15
2017-11-14T17:53:06.722Z,28.18
2017-11-14T17:53:34.922Z,28.12
2017-11-14T17:54:02.993Z,28.25
2017-11-14T17:54:31.666Z,28.34
2017-11-14T17:55:00.396Z,28.27
2017-11-14T17:55:28.874Z,28.33
2017-11-14T17:55:56.826Z,28.34
2017-11-14T17:56:24.923Z,28.4
2017-11-14T17:56:53.512Z,28.4
2017-11-14T17:57:21.683Z,28.43
2017-11-14T17:57:49.559Z,28.46
2017-11-14T17:58:17.630Z,28.5
2017-11-14T17:58:45.713Z,28.49
2017-11-14T17:59:13.801Z,28.52
2017-11-14T17:59:41.936Z,28.55
2017-11-14T18:00:10.018Z,28.64
2017-11-14T18:00:38.099Z,28.64
2017-11-14T18:01:05.974Z,28.52
2017-11-14T18:01:34.077Z,28.56
2017-11-14T18:02:02.415Z,28.43
2017-11-14T18:02:30.519Z,28.43
2017-11-14T18:02:58.614Z,28.37
2017-11-14T18:03:26.577Z,28.31
2017-11-14T18:03:54.643Z,28.31
2017-11-14T18:04:22.628Z,28.38
2017-11-14T18:04:50.627Z,28.3
2017-11-14T18:05:18.839Z,28.33
2017-11-14T18:05:47.060Z,28.23
2017-11-14T18:06:15.243Z,28.22
2017-11-14T18:06:43.304Z,28.2
2017-11-14T18:07:11.391Z,28.13
2017-11-14T18:07:39.555Z,28.12
2017-11-14T18:08:07.642Z,28.16
2017-11-14T18:08:35.632Z,28.19
2017-11-14T18:09:03.588Z,28.16
2017-11-14T18:09:31.907Z,28.19
2017-11-14T18:09:59.974Z,28.13
2017-11-14T18:10:28.135Z,28.12
2017-11-14T18:10:56.169Z,28.13
2017-11-14T18:11:25.533Z,28.15
2017-11-14T18:11:53.638Z,28.15
2017-11-14T18:12:21.827Z,28.13
2017-11-14T18:12:49.912Z,28.12
2017-11-14T18:13:17.908Z,28.01
2017-11-14T18:13:45.884Z,28
2017-11-14T18:14:13.989Z,27.97
2017-11-14T18:14:41.969Z,27.86
2017-11-14T18:15:09.930Z,27.9
2017-11-14T18:15:38.042Z,27.82
2017-11-14T18:16:06.182Z,27.82
2017-11-14T18:16:34.343Z,27.85
2017-11-14T18:17:02.411Z,27.85
2017-11-14T18:17:30.463Z,27.82
2017-11-14T18:17:58.529Z,27.76
2017-11-14T18:18:26.736Z,27.81
2017-11-14T18:18:54.697Z,27.81
2017-11-14T18:19:22.662Z,27.72
2017-11-14T18:19:50.760Z,27.73
2017-11-14T18:20:18.847Z,27.71
2017-11-14T18:20:47.139Z,27.67
2017-11-14T18:21:15.570Z,27.6
2017-11-14T18:21:43.551Z,27.63
2017-11-14T18:22:11.719Z,27.53
2017-11-14T18:22:39.752Z,27.5
2017-11-14T18:23:07.651Z,27.55
2017-11-14T18:23:35.738Z,27.55
2017-11-14T18:24:04.043Z,27.41
2017-11-14T18:24:32.107Z,27.52
2017-11-14T18:25:00.189Z,27.52
2017-11-14T18:25:28.882Z,27.47
2017-11-14T18:25:56.879Z,27.34
2017-11-14T18:26:25.839Z,27.44
2017-11-14T18:26:53.916Z,27.41
2017-11-14T18:27:21.971Z,27.47
2017-11-14T18:27:49.835Z,27.43
2017-11-14T18:28:17.916Z,27.45
2017-11-14T18:28:45.778Z,27.43
2017-11-14T18:29:13.943Z,27.38
2017-11-14T18:29:41.717Z,27.3
2017-11-14T18:30:09.928Z,27.38
2017-11-14T18:30:38.006Z,27.33
2017-11-14T18:31:07.173Z,27.22
2017-11-14T18:31:35.298Z,27.22
2017-11-14T18:32:03.897Z,27.28
2017-11-14T18:32:32.103Z,27.2
2017-11-14T18:33:00.171Z,27.26
2017-11-14T18:33:28.385Z,27.2
2017-11-14T18:33:56.457Z,27.16
2017-11-14T18:34:24.453Z,27.18
2017-11-14T18:34:52.523Z,27.16
2017-11-14T18:35:20.580Z,27.05
2017-11-14T18:35:48.658Z,27.15
2017-11-14T18:36:16.731Z,27.08
2017-11-14T18:36:44.721Z,27.08
2017-11-14T18:37:12.673Z,27.04
2017-11-14T18:37:40.683Z,26.97
2017-11-14T18:38:08.583Z,26.89
2017-11-14T18:38:36.684Z,26.88
2017-11-14T18:39:04.756Z,26.93
2017-11-14T18:39:32.943Z,26.89
2017-11-14T18:40:00.962Z,26.97
2017-11-14T18:40:29.079Z,26.89
2017-11-14T18:40:57.678Z,26.82
2017-11-14T18:41:25.628Z,26.93
2017-11-14T18:41:53.511Z,26.89
2017-11-14T18:42:21.605Z,26.92
2017-11-14T18:42:49.675Z,26.93
2017-11-14T18:43:17.861Z,26.89
2017-11-14T18:43:46.032Z,26.93
2017-11-14T18:44:13.783Z,26.96
2017-11-14T18:44:41.978Z,26.85
2017-11-14T18:45:10.041Z,27.01
2017-11-14T18:45:38.174Z,26.96
2017-11-14T18:46:06.135Z,26.96
2017-11-14T18:46:34.222Z,26.98
2017-11-14T18:47:02.180Z,26.93
2017-11-14T18:47:30.331Z,27.07
2017-11-14T18:47:58.613Z,27
2017-11-14T18:48:26.625Z,26.97
2017-11-14T18:48:54.420Z,26.91
2017-11-14T18:49:22.597Z,26.98
2017-11-14T18:49:50.856Z,26.89
2017-11-14T18:50:18.904Z,26.91
2017-11-14T18:50:47.052Z,26.91
2017-11-14T18:51:15.113Z,26.96
2017-11-14T18:51:43.496Z,26.93
2017-11-14T18:52:11.918Z,26.96
2017-11-14T18:52:40.462Z,26.97
2017-11-14T18:53:08.343Z,26.93
2017-11-14T18:53:36.315Z,26.93
2017-11-14T18:54:04.320Z,27
2017-11-14T18:54:32.376Z,26.97
2017-11-14T18:55:00.454Z,26.88
2017-11-14T18:55:28.860Z,26.86
2017-11-14T18:55:57.318Z,26.86
2017-11-14T18:56:25.279Z,26.82
2017-11-14T18:56:54.417Z,26.85
2017-11-14T18:57:22.486Z,26.81
2017-11-14T18:57:51.193Z,26.82
2017-11-14T18:58:20.026Z,26.85
2017-11-14T18:58:48.314Z,26.86
2017-11-14T18:59:16.423Z,26.76
2017-11-14T18:59:44.604Z,26.73
2017-11-14T19:00:13.124Z,26.67
2017-11-14T19:00:41.510Z,26.67
2017-11-14T19:01:09.562Z,26.6
2017-11-14T19:01:37.841Z,26.59
2017-11-14T19:02:06.801Z,26.49
2017-11-14T19:02:34.776Z,26.55
2017-11-14T19:03:03.017Z,26.53
2017-11-14T19:03:31.096Z,26.51
2017-11-14T19:03:59.259Z,26.37
2017-11-14T19:04:27.670Z,26.49
2017-11-14T19:04:55.687Z,26.44
2017-11-14T19:05:23.742Z,26.39
2017-11-14T19:05:51.835Z,26.41
2017-11-14T19:06:19.926Z,26.42
2017-11-14T19:06:48.177Z,26.37
2017-11-14T19:07:16.341Z,26.27
2017-11-14T19:07:44.542Z,26.34
2017-11-14T19:08:12.730Z,26.37
2017-11-14T19:08:40.939Z,26.37
2017-11-14T19:09:09.283Z,26.46
2017-11-14T19:09:37.346Z,26.37
2017-11-14T19:10:05.191Z,26.34
2017-11-14T19:10:33.573Z,26.44
2017-11-14T19:11:02.220Z,26.44
2017-11-14T19:11:30.087Z,26.51
2017-11-14T19:11:58.055Z,26.55
2017-11-14T19:12:26.218Z,26.51
2017-11-14T19:12:54.056Z,26.59
2017-11-14T19:13:22.010Z,26.55
2017-11-14T19:13:49.996Z,26.67
2017-11-14T19:14:18.085Z,26.56
2017-11-14T19:14:46.254Z,26.67
2017-11-14T19:15:14.198Z,26.74
2017-11-14T19:15:42.602Z,26.78
2017-11-14T19:16:10.564Z,26.64
2017-11-14T19:16:38.646Z,26.64
2017-11-14T19:17:06.709Z,26.53
2017-11-14T19:17:34.669Z,26.48
2017-11-14T19:18:02.813Z,26.46
2017-11-14T19:18:30.946Z,26.41
2017-11-14T19:18:59.009Z,26.39
2017-11-14T19:19:27.079Z,26.33
2017-11-14T19:19:55.239Z,26.29
2017-11-14T19:20:23.548Z,26.24
2017-11-14T19:20:51.619Z,26.19
2017-11-14T19:21:19.779Z,26.13
2017-11-14T19:21:47.941Z,26.19
2017-11-14T19:22:16.000Z,26.15
2017-11-14T19:22:43.946Z,26.06
2017-11-14T19:23:12.100Z,26.18
2017-11-14T19:23:40.045Z,26.15
2017-11-14T19:24:08.093Z,26.03
2017-11-14T19:24:36.061Z,26.1
2017-11-14T19:25:04.065Z,26.04
2017-11-14T19:25:32.227Z,26.01
2017-11-14T19:26:00.198Z,26.06
2017-11-14T19:26:28.191Z,26.04
2017-11-14T19:26:56.335Z,25.99
2017-11-14T19:27:24.402Z,25.99
2017-11-14T19:27:52.292Z,25.91
2017-11-14T19:28:20.453Z,25.93
2017-11-14T19:28:48.602Z,25.85
2017-11-14T19:29:16.565Z,25.93
2017-11-14T19:29:44.544Z,25.93
2017-11-14T19:30:12.549Z,25.98
2017-11-14T19:30:40.517Z,25.85
2017-11-14T19:31:08.447Z,25.85
2017-11-14T19:31:36.578Z,25.86
2017-11-14T19:32:04.542Z,25.85
2017-11-14T19:32:32.936Z,25.85
2017-11-14T19:33:01.123Z,25.74
2017-11-14T19:33:29.455Z,25.78